YMAV Airport Information

Runway Information
Runway 18 Length 10000 ft width 148 ft
Elevation 32 ft Threshold 0 ft Heading 188
Runway 36 Length 10000 ft Width 148 ft
Elevation 34 ft Threshold 0 ft Heading 8
Airport Frequencies
Type ATIS Name ATIS Frequency 116.1 MHZ
Type CTAF Name CTAF Frequency 120.1 MHZ
Type FSS Name MELBOURNE Frequency 135.7 MHZ
Type TWR Name TWR Frequency 120.1 MHZ
Type UNIC Name FLIGHT OPS Frequency 129.3 MHZ
Airport Navaids
Type VOR-DME Name Avalon Frequency 116100 KHZ
Type NDB Name Avalon Frequency 404 KHZ
Type NDB Name Ripley (Decommissioned) Frequency 224 KHZ
Airport Weather Information & NOTAM
ADDS - METARS form results

(0457 UTC 18 October 2019)
Data provider http://aviationweather.gov/metar/data/
 
METAR text: YMAV 180435Z AUTO 31021G31KT 9999 // OVC066 20/05 Q1009 RF00.0/000.0
Conditions at: YMAV (AVALON AIRPORT , AU) observed 0435 UTC 18 October 2019
Temperature: 20.0°C (68°F)
Dewpoint: 5.0°C (41°F) [RH = 37%]
Pressure (altimeter): 29.79 inches Hg (1009.0 mb)
Winds: from the NW (310 degrees) at 24 MPH (21 knots; 10.8 m/s)
gusting to 36 MPH (31 knots; 15.9 m/s)
Visibility: 6 or more miles (10+ km)
Ceiling: 6600 feet AGL
Clouds: overcast cloud deck at 6600 feet AGL
Weather: no significant weather observed at this time

METAR text: YMAV 180410Z AUTO 31024G34KT 9999 // SCT064 BKN074 19/05 Q1010
Conditions at: YMAV (AVALON AIRPORT , AU) observed 0410 UTC 18 October 2019
Temperature: 19.0°C (66°F)
Dewpoint: 5.0°C (41°F) [RH = 40%]
Pressure (altimeter): 29.82 inches Hg (1010.0 mb)
Winds: from the NW (310 degrees) at 28 MPH (24 knots; 12.3 m/s)
gusting to 39 MPH (34 knots; 17.5 m/s)
Visibility: 6 or more miles (10+ km)
Ceiling: 7400 feet AGL
Clouds: scattered clouds at 6400 feet AGL
broken clouds at 7400 feet AGL
Weather: no significant weather observed at this time

METAR text: YMAV 180400Z AUTO 31026KT 9999 // SCT060 20/05 Q1010 RF00.0/000.0
Conditions at: YMAV (AVALON AIRPORT , AU) observed 0400 UTC 18 October 2019
Temperature: 20.0°C (68°F)
Dewpoint: 5.0°C (41°F) [RH = 37%]
Pressure (altimeter): 29.82 inches Hg (1010.0 mb)
Winds: from the NW (310 degrees) at 30 MPH (26 knots; 13.4 m/s)
Visibility: 6 or more miles (10+ km)
Ceiling: at least 12,000 feet AGL
Clouds: scattered clouds at 6000 feet AGL
Weather: no significant weather observed at this time

Forecast for: YMAV (AVALON AIRPORT , AU)
Text: TAF YMAV 172317Z 1800/1824 32016G32KT 9999 SCT030
Forecast period: 0000 to 0200 UTC 18 October 2019
Forecast type: FROM: standard forecast or significant change
Winds: from the NW (320 degrees) at 18 MPH (16 knots; 8.2 m/s)
gusting to 37 MPH (32 knots; 16.5 m/s)
Visibility: 6 or more miles 10+ km)
Ceiling: at least 12,000 feet AGL
Clouds: scattered clouds at 3000 feet AGL
Weather: no significant weather forecast for this period
Text: FM180200 30022G40KT 9999 FEW045
Forecast period: 0200 to 0700 UTC 18 October 2019
Forecast type: FROM: standard forecast or significant change
Winds: from the WNW (300 degrees) at 25 MPH (22 knots; 11.3 m/s)
gusting to 46 MPH (40 knots; 20.6 m/s)
Visibility: 6 or more miles 10+ km)
Ceiling: at least 12,000 feet AGL
Clouds: few clouds at 4500 feet AGL
Weather: no significant weather forecast for this period
Text: BECMG 1807/1808 27015G25KT 9999 -SHRA SCT030 BKN050
Forecast period: 0700 to 1000 UTC 18 October 2019
Forecast type: BECOMING: Conditions expected to become as follows by 0800 UTC 18 October 2019
Winds: from the W (270 degrees) at 17 MPH (15 knots; 7.7 m/s)
gusting to 29 MPH (25 knots; 12.9 m/s)
Visibility: 6 or more miles 10+ km)
Ceiling: 5000 feet AGL
Clouds: scattered clouds at 3000 feet AGL
broken clouds at 5000 feet AGL
Weather: -SHRA  (light rain showers)
Text: FM181000 27012KT 9999 SCT040 INTER 1808/1811 5000 SHRA SCT025
Forecast period: 1000 UTC 18 October 2019 to 0000 UTC 19 October 2019
Forecast type: FROM: standard forecast or significant change
Winds: from the W (270 degrees) at 14 MPH (12 knots; 6.2 m/s)
Visibility: 6 or more miles 10+ km)
Ceiling: at least 12,000 feet AGL
Clouds: scattered clouds at 4000 feet AGL
Weather: no significant weather forecast for this period
Text:
Forecast period: 0800 to 1100 UTC 18 October 2019
Forecast type: TEMPORARY: The following changes expected for less than half the time period
Visibility: 3 miles (5 km)
Ceiling: at least 12,000 feet AGL
Clouds: scattered clouds at 2500 feet AGL
Weather: SHRA  (rain showers)

Contacts Infinite Flight LiveFlight Admin Panel 

© Qantas Virtual Group